Keeler Bay, Vermont
Current Conditions -  °F | °C
As of 7:53 PM on Sunday 23 Nov 2014 (Local Time) from KPBG Reporting Station
Broken Clouds Broken Clouds  
Wind Chill: 38°   Ceiling: 6000
Heat Index: 42°   Visibility: 10mi
Dew Point: 38°   Wind: 6mph
Humidity: 85%   Direction: 220°SW
Pressure: 30"   Gusts: NA
Location:  44.6397°N, 73.3099°W
Report Text: KPBG 240053Z AUTO 22005KT 10SM BKN060 BKN120 06/03 A3000 RMK AO2 SLP162 T00560033
Loading
Personal Weather Stations






























Interactive Weather Map New forecast layout! Learn more

10-Day Weather Forecast

Advertisements
Track Severe Weather on mobile